createdAt,value
2017-12-20T00:01:27.565Z,4.11
2017-12-20T00:02:54.910Z,4.14
2017-12-20T00:04:21.174Z,4.17
2017-12-20T00:05:49.403Z,4.19
2017-12-20T00:07:15.533Z,4.22
2017-12-20T00:08:42.859Z,4.23
2017-12-20T00:10:09.818Z,4.23
2017-12-20T00:11:38.000Z,4.24
2017-12-20T00:13:05.291Z,4.24
2017-12-20T00:14:32.615Z,4.24
2017-12-20T00:15:58.802Z,4.24
2017-12-20T00:17:25.927Z,4.24
2017-12-20T00:18:53.210Z,4.24
2017-12-20T00:20:20.288Z,4.23
2017-12-20T00:21:48.547Z,4.21
2017-12-20T00:23:14.674Z,4.18
2017-12-20T00:24:41.820Z,4.17
2017-12-20T00:26:08.685Z,4.17
2017-12-20T00:27:36.774Z,4.19
2017-12-20T00:29:03.027Z,4.20
2017-12-20T00:30:30.267Z,4.21
2017-12-20T00:31:57.549Z,4.24
2017-12-20T00:33:24.748Z,4.26
2017-12-20T00:34:51.829Z,4.28
2017-12-20T00:36:20.091Z,4.29
2017-12-20T00:37:46.406Z,4.30
2017-12-20T00:39:13.745Z,4.31
2017-12-20T00:40:41.885Z,4.33
2017-12-20T00:42:09.005Z,4.33
2017-12-20T00:43:35.313Z,4.34
2017-12-20T00:45:03.599Z,4.35
2017-12-20T00:46:29.717Z,4.36
2017-12-20T00:47:57.854Z,4.37
2017-12-20T00:49:24.093Z,4.38
2017-12-20T00:50:52.465Z,4.39
2017-12-20T00:52:18.809Z,4.38
2017-12-20T00:53:45.836Z,4.39
2017-12-20T00:55:14.087Z,4.40
2017-12-20T00:56:40.119Z,4.41
2017-12-20T00:58:07.362Z,4.41
2017-12-20T00:59:35.623Z,4.38
2017-12-20T01:01:01.634Z,4.33
2017-12-20T01:02:29.804Z,4.30
2017-12-20T01:03:57.096Z,4.25
2017-12-20T01:05:23.346Z,4.25
2017-12-20T01:06:51.441Z,4.25
2017-12-20T01:08:18.768Z,4.26
2017-12-20T01:09:44.844Z,4.27
2017-12-20T01:11:12.025Z,4.28
2017-12-20T01:12:39.116Z,4.28
2017-12-20T01:14:06.382Z,4.28
2017-12-20T01:15:34.603Z,4.28
2017-12-20T01:17:01.912Z,4.29
2017-12-20T01:18:29.270Z,4.29
2017-12-20T01:19:55.466Z,4.31
2017-12-20T01:21:23.738Z,4.32
2017-12-20T01:22:51.146Z,4.33
2017-12-20T01:24:17.951Z,4.34
2017-12-20T01:25:45.181Z,4.33
2017-12-20T01:27:11.357Z,4.34
2017-12-20T01:28:39.440Z,4.36
2017-12-20T01:30:05.804Z,4.36
2017-12-20T01:31:33.044Z,4.36
2017-12-20T01:33:00.347Z,4.37
2017-12-20T01:34:28.532Z,4.37
2017-12-20T01:35:55.899Z,4.37
2017-12-20T01:37:23.155Z,4.37
2017-12-20T01:38:49.545Z,4.36
2017-12-20T01:40:17.869Z,4.35
2017-12-20T01:41:45.014Z,4.33
2017-12-20T01:43:11.317Z,4.34
2017-12-20T01:44:38.471Z,4.35
2017-12-20T01:46:08.713Z,4.34
2017-12-20T01:47:33.049Z,4.33
2017-12-20T01:49:00.417Z,4.30
2017-12-20T01:50:27.560Z,4.28
2017-12-20T01:51:55.720Z,4.28
2017-12-20T01:53:23.053Z,4.29
2017-12-20T01:54:50.491Z,4.28
2017-12-20T01:56:16.877Z,4.26
2017-12-20T01:57:43.999Z,4.25
2017-12-20T01:59:12.011Z,4.25
2017-12-20T02:00:39.077Z,4.26
2017-12-20T02:02:05.494Z,4.26
2017-12-20T02:03:33.906Z,4.25
2017-12-20T02:05:00.863Z,4.24
2017-12-20T02:06:27.060Z,4.24
2017-12-20T02:07:55.394Z,4.24
2017-12-20T02:09:22.620Z,4.25
2017-12-20T02:10:48.721Z,4.25
2017-12-20T02:12:15.974Z,4.26
2017-12-20T02:13:43.324Z,4.27
2017-12-20T02:15:10.523Z,4.27
2017-12-20T02:16:37.949Z,4.28
2017-12-20T02:18:06.005Z,4.26
2017-12-20T02:19:32.218Z,4.25
2017-12-20T02:21:00.588Z,4.25
2017-12-20T02:22:26.729Z,4.24
2017-12-20T02:23:53.945Z,4.24
2017-12-20T02:25:22.285Z,4.22
2017-12-20T02:26:48.507Z,4.21
2017-12-20T02:28:16.497Z,4.21
2017-12-20T02:29:43.915Z,4.20
2017-12-20T02:31:09.993Z,4.20
2017-12-20T02:32:42.587Z,4.21
2017-12-20T02:34:04.478Z,4.22
2017-12-20T02:35:32.681Z,4.22
2017-12-20T02:36:59.985Z,4.23
2017-12-20T02:38:27.299Z,4.21
2017-12-20T02:39:53.578Z,4.21
2017-12-20T02:41:20.820Z,4.21
2017-12-20T02:42:48.058Z,4.21
2017-12-20T02:44:15.221Z,4.23
2017-12-20T02:45:43.366Z,4.23
2017-12-20T02:47:10.493Z,4.23
2017-12-20T02:48:36.899Z,4.23
2017-12-20T02:50:05.092Z,4.24
2017-12-20T02:51:31.351Z,4.24
2017-12-20T02:52:59.397Z,4.23
2017-12-20T02:54:25.648Z,4.24
2017-12-20T02:55:52.664Z,4.24
2017-12-20T02:57:20.929Z,4.25
2017-12-20T02:58:48.080Z,4.26
2017-12-20T03:00:15.386Z,4.28
2017-12-20T03:01:41.728Z,4.28
2017-12-20T03:03:08.736Z,4.28
2017-12-20T03:04:36.109Z,4.28
2017-12-20T03:06:04.477Z,4.27
2017-12-20T03:07:30.565Z,4.27
2017-12-20T03:08:58.962Z,4.26
2017-12-20T03:10:25.298Z,4.27
2017-12-20T03:11:52.408Z,4.26
2017-12-20T03:13:20.669Z,4.26
2017-12-20T03:14:46.832Z,4.25
2017-12-20T03:16:15.241Z,4.24
2017-12-20T03:17:42.202Z,4.23
2017-12-20T03:19:08.543Z,4.22
2017-12-20T03:20:35.636Z,4.21
2017-12-20T03:22:02.869Z,4.21
2017-12-20T03:23:30.123Z,4.20
2017-12-20T03:24:57.550Z,4.21
2017-12-20T03:26:24.665Z,4.21
2017-12-20T03:27:52.890Z,4.22
2017-12-20T03:29:19.101Z,4.22
2017-12-20T03:30:47.416Z,4.22
2017-12-20T03:32:13.683Z,4.22
2017-12-20T03:33:40.875Z,4.23
2017-12-20T03:35:09.048Z,4.23
2017-12-20T03:36:35.058Z,4.24
2017-12-20T03:38:03.177Z,4.24
2017-12-20T03:39:29.557Z,4.24
2017-12-20T03:40:57.889Z,4.24
2017-12-20T03:42:23.949Z,4.25
2017-12-20T03:43:52.167Z,4.25
2017-12-20T03:45:18.177Z,4.25
2017-12-20T03:46:45.532Z,4.25
2017-12-20T03:48:13.657Z,4.25
2017-12-20T03:49:39.719Z,4.24
2017-12-20T03:51:07.176Z,4.24
2017-12-20T03:52:35.431Z,4.23
2017-12-20T03:54:02.330Z,4.23
2017-12-20T03:55:29.786Z,4.23
2017-12-20T03:56:56.940Z,4.23
2017-12-20T03:58:22.946Z,4.23
2017-12-20T03:59:50.139Z,4.24
2017-12-20T04:01:17.393Z,4.25
2017-12-20T04:02:45.462Z,4.25
2017-12-20T04:04:12.707Z,4.26
2017-12-20T04:05:38.861Z,4.25
2017-12-20T04:07:06.219Z,4.21
2017-12-20T04:08:34.371Z,4.18
2017-12-20T04:10:00.633Z,4.18
2017-12-20T04:11:28.813Z,4.19
2017-12-20T04:12:54.848Z,4.20
2017-12-20T04:14:22.006Z,4.20
2017-12-20T04:15:50.078Z,4.22
2017-12-20T04:17:16.176Z,4.22
2017-12-20T04:18:43.517Z,4.22
2017-12-20T04:20:11.723Z,4.23
2017-12-20T04:21:38.652Z,4.23
2017-12-20T04:23:05.191Z,4.23
2017-12-20T04:24:33.265Z,4.23
2017-12-20T04:25:59.701Z,4.22
2017-12-20T04:27:27.971Z,4.21
2017-12-20T04:28:54.069Z,4.15
2017-12-20T04:30:21.282Z,4.09
2017-12-20T04:31:49.540Z,4.05
2017-12-20T04:33:16.777Z,4.06
2017-12-20T04:34:43.090Z,4.09
2017-12-20T04:36:11.145Z,4.12
2017-12-20T04:37:38.512Z,4.14
2017-12-20T04:39:05.704Z,4.17
2017-12-20T04:40:33.140Z,4.18
2017-12-20T04:42:00.274Z,4.19
2017-12-20T04:43:27.716Z,4.21
2017-12-20T04:44:54.103Z,4.21
2017-12-20T04:46:21.308Z,4.21
2017-12-20T04:47:48.526Z,4.21
2017-12-20T04:49:16.793Z,4.21
2017-12-20T04:50:43.128Z,4.22
2017-12-20T04:52:11.390Z,4.24
2017-12-20T04:53:38.623Z,4.24
2017-12-20T04:55:05.872Z,4.24
2017-12-20T04:56:33.234Z,4.24
2017-12-20T04:57:59.384Z,4.26
2017-12-20T04:59:27.561Z,4.27
2017-12-20T05:00:54.832Z,4.27
2017-12-20T05:02:21.984Z,4.27
2017-12-20T05:03:49.288Z,4.27
2017-12-20T05:05:15.553Z,4.27
2017-12-20T05:06:43.834Z,4.27
2017-12-20T05:08:09.921Z,4.28
2017-12-20T05:09:38.249Z,4.26
2017-12-20T05:11:05.447Z,4.26
2017-12-20T05:12:31.721Z,4.26
2017-12-20T05:13:59.906Z,4.26
2017-12-20T05:15:26.092Z,4.27
2017-12-20T05:16:53.465Z,4.28
2017-12-20T05:18:20.731Z,4.29
2017-12-20T05:19:47.836Z,4.31
2017-12-20T05:21:11.224Z,4.31
2017-12-20T05:22:42.331Z,4.31
2017-12-20T05:24:10.637Z,4.31
2017-12-20T05:25:38.078Z,4.30
2017-12-20T05:27:04.418Z,4.27
2017-12-20T05:28:31.719Z,4.27
2017-12-20T05:29:58.915Z,4.26
2017-12-20T05:31:27.177Z,4.26
2017-12-20T05:32:53.401Z,4.25
2017-12-20T05:34:21.696Z,4.26
2017-12-20T05:35:47.889Z,4.26
2017-12-20T05:37:16.154Z,4.27
2017-12-20T05:38:41.910Z,4.25
2017-12-20T05:40:09.958Z,4.25
2017-12-20T05:41:36.191Z,4.24
2017-12-20T05:43:04.499Z,4.24
2017-12-20T05:44:31.666Z,4.24
2017-12-20T05:45:58.007Z,4.25
2017-12-20T05:47:25.351Z,4.25
2017-12-20T05:48:52.657Z,4.24
2017-12-20T05:50:20.867Z,4.24
2017-12-20T05:51:46.863Z,4.24
2017-12-20T05:53:15.031Z,4.25
2017-12-20T05:54:41.452Z,4.25
2017-12-20T05:56:09.258Z,4.25
2017-12-20T05:57:35.365Z,4.23
2017-12-20T05:59:02.693Z,4.21
2017-12-20T06:00:29.949Z,4.22
2017-12-20T06:01:58.179Z,4.23
2017-12-20T06:03:25.408Z,4.23
2017-12-20T06:04:51.636Z,4.24
2017-12-20T06:06:19.696Z,4.24
2017-12-20T06:07:46.068Z,4.23
2017-12-20T06:09:13.230Z,4.23
2017-12-20T06:10:40.479Z,4.23
2017-12-20T06:12:07.577Z,4.23
2017-12-20T06:13:34.608Z,4.23
2017-12-20T06:15:01.745Z,4.22
2017-12-20T06:16:29.874Z,4.21
2017-12-20T06:17:56.140Z,4.22
2017-12-20T06:19:24.621Z,4.23
2017-12-20T06:20:51.631Z,4.24
2017-12-20T06:22:18.974Z,4.24
2017-12-20T06:23:45.170Z,4.24
2017-12-20T06:25:13.125Z,4.26
2017-12-20T06:26:39.140Z,4.25
2017-12-20T06:28:06.289Z,4.27
2017-12-20T06:29:33.459Z,4.29
2017-12-20T06:31:01.694Z,4.29
2017-12-20T06:32:28.913Z,4.29
2017-12-20T06:33:55.285Z,4.28
2017-12-20T06:35:23.678Z,4.28
2017-12-20T06:36:49.798Z,4.30
2017-12-20T06:38:17.000Z,4.32
2017-12-20T06:39:45.191Z,4.33
2017-12-20T06:41:11.217Z,4.34
2017-12-20T06:42:39.390Z,4.36
2017-12-20T06:44:06.420Z,4.39
2017-12-20T06:45:33.678Z,4.41
2017-12-20T06:47:00.920Z,4.44
2017-12-20T06:48:28.248Z,4.45
2017-12-20T06:49:54.632Z,4.43
2017-12-20T06:51:22.058Z,4.42
2017-12-20T06:52:49.257Z,4.41
2017-12-20T06:54:17.422Z,4.38
2017-12-20T06:55:43.676Z,4.34
2017-12-20T06:57:11.959Z,4.34
2017-12-20T06:58:38.166Z,4.35
2017-12-20T07:00:06.402Z,4.36
2017-12-20T07:01:33.550Z,4.36
2017-12-20T07:02:59.833Z,4.36
2017-12-20T07:04:27.175Z,4.36
2017-12-20T07:05:54.378Z,4.35
2017-12-20T07:07:21.337Z,4.34
2017-12-20T07:08:49.607Z,4.34
2017-12-20T07:10:15.668Z,4.34
2017-12-20T07:11:42.703Z,4.33
2017-12-20T07:13:09.783Z,4.35
2017-12-20T07:14:37.136Z,4.34
2017-12-20T07:16:04.393Z,4.34
2017-12-20T07:17:31.778Z,4.34
2017-12-20T07:18:59.033Z,4.34
2017-12-20T07:20:27.372Z,4.34
2017-12-20T07:21:54.472Z,4.35
2017-12-20T07:23:20.904Z,4.35
2017-12-20T07:24:49.043Z,4.35
2017-12-20T07:26:16.289Z,4.36
2017-12-20T07:27:42.549Z,4.36
2017-12-20T07:29:09.810Z,4.36
2017-12-20T07:30:36.911Z,4.36
2017-12-20T07:32:05.101Z,4.34
2017-12-20T07:33:32.214Z,4.32
2017-12-20T07:34:58.335Z,4.23
2017-12-20T07:36:25.642Z,4.17
2017-12-20T07:37:52.913Z,4.17
2017-12-20T07:39:19.995Z,4.19
2017-12-20T07:40:47.246Z,4.20
2017-12-20T07:42:14.415Z,4.21
2017-12-20T07:43:42.774Z,4.20
2017-12-20T07:45:08.912Z,4.21
2017-12-20T07:46:36.126Z,4.22
2017-12-20T07:48:04.484Z,4.22
2017-12-20T07:49:30.799Z,4.23
2017-12-20T07:50:58.989Z,4.24
2017-12-20T07:52:25.328Z,4.26
2017-12-20T07:53:52.543Z,4.27
2017-12-20T07:55:20.783Z,4.28
2017-12-20T07:56:48.107Z,4.29
2017-12-20T07:58:14.095Z,4.29
2017-12-20T07:59:41.458Z,4.30
2017-12-20T08:01:09.554Z,4.32
2017-12-20T08:02:35.680Z,4.31
2017-12-20T08:04:02.733Z,4.32
2017-12-20T08:05:29.845Z,4.32
2017-12-20T08:06:58.027Z,4.32
2017-12-20T08:08:25.367Z,4.33
2017-12-20T08:09:51.563Z,4.34
2017-12-20T08:11:18.737Z,4.35
2017-12-20T08:12:45.882Z,4.36
2017-12-20T08:14:14.102Z,4.38
2017-12-20T08:15:40.407Z,4.39
2017-12-20T08:17:08.442Z,4.38
2017-12-20T08:18:34.934Z,4.40
2017-12-20T08:20:03.031Z,4.41
2017-12-20T08:21:29.398Z,4.43
2017-12-20T08:22:57.544Z,4.45
2017-12-20T08:24:23.913Z,4.47
2017-12-20T08:25:52.083Z,4.48
2017-12-20T08:27:19.182Z,4.50
2017-12-20T08:28:46.434Z,4.49
2017-12-20T08:30:13.683Z,4.49
2017-12-20T08:31:40.787Z,4.50
2017-12-20T08:33:07.206Z,4.51
2017-12-20T08:34:34.559Z,4.52
2017-12-20T08:36:01.902Z,4.53
2017-12-20T08:37:29.214Z,4.54
2017-12-20T08:38:56.601Z,4.55
2017-12-20T08:40:23.964Z,4.56
2017-12-20T08:41:52.134Z,4.56
2017-12-20T08:43:18.372Z,4.55
2017-12-20T08:44:46.610Z,4.56
2017-12-20T08:46:13.917Z,4.57
2017-12-20T08:47:40.092Z,4.58
2017-12-20T08:49:08.310Z,4.59
2017-12-20T08:50:35.642Z,4.58
2017-12-20T08:52:01.814Z,4.59
2017-12-20T08:53:29.126Z,4.60
2017-12-20T08:54:56.523Z,4.62
2017-12-20T08:56:23.904Z,4.62
2017-12-20T08:57:52.128Z,4.62
2017-12-20T08:59:18.185Z,4.64
2017-12-20T09:00:46.512Z,4.65
2017-12-20T09:02:12.675Z,4.66
2017-12-20T09:03:39.836Z,4.66
2017-12-20T09:05:07.302Z,4.67
2017-12-20T09:06:34.410Z,4.67
2017-12-20T09:08:02.792Z,4.68
2017-12-20T09:09:30.094Z,4.69
2017-12-20T09:10:56.374Z,4.71
2017-12-20T09:12:23.629Z,4.72
2017-12-20T09:13:50.908Z,4.74
2017-12-20T09:15:18.225Z,4.75
2017-12-20T09:16:45.412Z,4.77
2017-12-20T09:18:13.621Z,4.78
2017-12-20T09:19:39.838Z,4.79
2017-12-20T09:21:07.336Z,4.80
2017-12-20T09:22:34.276Z,4.80
2017-12-20T09:24:02.442Z,4.79
2017-12-20T09:25:29.632Z,4.78
2017-12-20T09:26:56.853Z,4.79
2017-12-20T09:28:23.930Z,4.76
2017-12-20T09:29:51.287Z,4.75
2017-12-20T09:31:18.294Z,4.73
2017-12-20T09:32:45.537Z,4.75
2017-12-20T09:34:11.925Z,4.76
2017-12-20T09:35:38.903Z,4.77
2017-12-20T09:37:06.228Z,4.78
2017-12-20T09:38:33.511Z,4.80
2017-12-20T09:40:00.763Z,4.83
2017-12-20T09:41:28.857Z,4.87
2017-12-20T09:42:56.122Z,4.87
2017-12-20T09:44:23.324Z,4.87
2017-12-20T09:45:49.694Z,4.87
2017-12-20T09:47:16.840Z,4.88
2017-12-20T09:48:43.996Z,4.90
2017-12-20T09:50:11.378Z,4.92
2017-12-20T09:51:38.340Z,4.94
2017-12-20T09:53:05.694Z,4.96
2017-12-20T09:54:33.056Z,4.97
2017-12-20T09:56:01.580Z,4.99
2017-12-20T09:57:27.804Z,5.02
2017-12-20T09:58:55.053Z,5.04
2017-12-20T10:00:22.145Z,5.07
2017-12-20T10:01:49.340Z,5.09
2017-12-20T10:03:16.715Z,5.11
2017-12-20T10:04:43.910Z,5.14
2017-12-20T10:06:11.983Z,5.15
2017-12-20T10:07:38.229Z,5.15
2017-12-20T10:09:05.388Z,5.17
2017-12-20T10:10:32.572Z,5.17
2017-12-20T10:12:00.037Z,5.18
2017-12-20T10:13:28.233Z,5.20
2017-12-20T10:14:54.607Z,5.23
2017-12-20T10:16:21.908Z,5.24
2017-12-20T10:17:50.186Z,5.26
2017-12-20T10:19:16.354Z,5.27
2017-12-20T10:20:43.622Z,5.29
2017-12-20T10:22:10.888Z,5.31
2017-12-20T10:23:38.424Z,5.34
2017-12-20T10:25:06.819Z,5.34
2017-12-20T10:26:32.858Z,5.35
2017-12-20T10:28:00.221Z,5.35
2017-12-20T10:29:27.410Z,5.36
2017-12-20T10:30:54.815Z,5.36
2017-12-20T10:32:21.791Z,5.37
2017-12-20T10:33:50.190Z,5.37
2017-12-20T10:35:17.303Z,5.37
2017-12-20T10:36:44.363Z,5.38
2017-12-20T10:38:10.754Z,5.37
2017-12-20T10:39:39.061Z,5.36
2017-12-20T10:41:05.136Z,5.36
2017-12-20T10:42:32.551Z,5.36
2017-12-20T10:43:59.720Z,5.37
2017-12-20T10:45:27.943Z,5.39
2017-12-20T10:46:55.007Z,5.41
2017-12-20T10:48:21.116Z,5.43
2017-12-20T10:51:16.671Z,5.47
2017-12-20T10:52:43.905Z,5.48
2017-12-20T10:54:10.946Z,5.50
2017-12-20T10:55:37.278Z,5.53
2017-12-20T10:57:05.714Z,5.54
2017-12-20T10:58:31.948Z,5.57
2017-12-20T11:00:00.235Z,5.59
2017-12-20T11:01:26.633Z,5.60
2017-12-20T11:02:54.002Z,5.62
2017-12-20T11:04:22.210Z,5.64
2017-12-20T11:05:49.493Z,5.64
2017-12-20T11:07:16.761Z,5.65
2017-12-20T11:08:42.971Z,5.65
2017-12-20T11:10:10.166Z,5.65
2017-12-20T11:11:37.614Z,5.65
2017-12-20T11:13:04.669Z,5.64
2017-12-20T11:14:31.893Z,5.58
2017-12-20T11:15:59.208Z,5.55
2017-12-20T11:17:26.488Z,5.54
2017-12-20T11:18:53.661Z,5.56
2017-12-20T11:20:21.013Z,5.58
2017-12-20T11:21:48.239Z,5.59
2017-12-20T11:23:16.544Z,5.61
2017-12-20T11:24:43.840Z,5.62
2017-12-20T11:26:09.858Z,5.63
2017-12-20T11:27:37.016Z,5.64
2017-12-20T11:29:04.408Z,5.63
2017-12-20T11:30:31.678Z,5.63
2017-12-20T11:31:58.934Z,5.64
2017-12-20T11:33:27.271Z,5.64
2017-12-20T11:34:53.434Z,5.65
2017-12-20T11:36:20.805Z,5.66
2017-12-20T11:37:48.060Z,5.67
2017-12-20T11:39:15.379Z,5.66
2017-12-20T11:40:42.643Z,5.66
2017-12-20T11:42:10.950Z,5.67
2017-12-20T11:43:37.306Z,5.68
2017-12-20T11:45:04.640Z,5.69
2017-12-20T11:46:31.998Z,5.69
2017-12-20T11:47:59.281Z,5.69
2017-12-20T11:49:27.736Z,5.71
2017-12-20T11:50:53.949Z,5.72
2017-12-20T11:52:21.202Z,5.73
2017-12-20T11:53:48.508Z,5.75
2017-12-20T11:55:15.648Z,5.75
2017-12-20T11:56:43.780Z,5.76
2017-12-20T11:58:11.070Z,5.77
2017-12-20T11:59:37.170Z,5.78
2017-12-20T12:01:04.408Z,5.79
2017-12-20T12:02:32.653Z,5.80
2017-12-20T12:03:59.895Z,5.80
2017-12-20T12:05:26.223Z,5.80
2017-12-20T12:06:53.590Z,5.80
2017-12-20T12:08:20.852Z,5.81
2017-12-20T12:09:49.163Z,5.81
2017-12-20T12:11:15.203Z,5.82
2017-12-20T12:12:43.295Z,5.82
2017-12-20T12:14:09.677Z,5.82
2017-12-20T12:15:36.889Z,5.83
2017-12-20T12:17:04.175Z,5.85
2017-12-20T12:18:32.446Z,5.86
2017-12-20T12:19:58.847Z,5.87
2017-12-20T12:21:25.947Z,5.87
2017-12-20T12:22:54.281Z,5.87
2017-12-20T12:24:21.720Z,5.87
2017-12-20T12:25:48.861Z,5.87
2017-12-20T12:27:15.164Z,5.88
2017-12-20T12:28:42.402Z,5.88
2017-12-20T12:30:09.593Z,5.89
2017-12-20T12:31:37.923Z,5.89
2017-12-20T12:33:04.260Z,5.90
2017-12-20T12:34:31.660Z,5.91
2017-12-20T12:35:59.918Z,5.91
2017-12-20T12:37:26.212Z,5.93
2017-12-20T12:38:54.531Z,5.93
2017-12-20T12:40:20.814Z,5.94
2017-12-20T12:41:47.901Z,5.95
2017-12-20T12:43:16.164Z,5.94
2017-12-20T12:44:42.464Z,5.94
2017-12-20T12:46:10.602Z,5.94
2017-12-20T12:47:36.718Z,5.94
2017-12-20T12:49:04.229Z,5.93
2017-12-20T12:50:31.480Z,5.93
2017-12-20T12:51:58.901Z,5.92
2017-12-20T12:53:27.063Z,5.91
2017-12-20T12:54:53.416Z,5.90
2017-12-20T12:56:20.617Z,5.89
2017-12-20T12:57:47.855Z,5.89
2017-12-20T12:59:16.151Z,5.89
2017-12-20T13:00:42.337Z,5.88
2017-12-20T13:02:09.586Z,5.89
2017-12-20T13:03:36.824Z,5.89
2017-12-20T13:05:05.073Z,5.90
2017-12-20T13:06:31.195Z,5.89
2017-12-20T13:07:58.513Z,5.89
2017-12-20T13:09:25.960Z,5.87
2017-12-20T13:10:54.322Z,5.87
2017-12-20T13:12:20.608Z,5.87
2017-12-20T13:13:47.775Z,5.87
2017-12-20T13:15:16.069Z,5.88
2017-12-20T13:16:42.390Z,5.90
2017-12-20T13:18:09.680Z,5.90
2017-12-20T13:19:36.983Z,5.91
2017-12-20T13:21:05.400Z,5.90
2017-12-20T13:22:31.631Z,5.90
2017-12-20T13:23:59.922Z,5.91
2017-12-20T13:25:26.350Z,5.92
2017-12-20T13:26:53.490Z,5.93
2017-12-20T13:28:20.873Z,5.94
2017-12-20T13:29:48.120Z,5.95
2017-12-20T13:31:15.143Z,5.96
2017-12-20T13:32:42.524Z,5.96
2017-12-20T13:34:09.844Z,5.97
2017-12-20T13:35:37.251Z,5.98
2017-12-20T13:37:04.767Z,6.00
2017-12-20T13:38:31.966Z,6.01
2017-12-20T13:39:59.230Z,6.02
2017-12-20T13:41:26.386Z,6.03
2017-12-20T13:42:53.612Z,6.04
2017-12-20T13:44:20.678Z,6.05
2017-12-20T13:45:47.986Z,6.06
2017-12-20T13:47:16.236Z,6.07
2017-12-20T13:48:43.380Z,6.05
2017-12-20T13:50:09.560Z,6.05
2017-12-20T13:51:36.821Z,6.05
2017-12-20T13:53:04.155Z,6.06
2017-12-20T13:54:32.616Z,6.07
2017-12-20T13:55:59.067Z,6.08
2017-12-20T13:57:26.422Z,6.08
2017-12-20T13:58:54.570Z,6.07
2017-12-20T14:00:20.815Z,6.07
2017-12-20T14:01:48.171Z,6.08
2017-12-20T14:03:15.290Z,6.07
2017-12-20T14:04:42.523Z,6.06
2017-12-20T14:06:10.946Z,6.05
2017-12-20T14:07:37.162Z,6.05
2017-12-20T14:09:04.486Z,6.05
2017-12-20T14:10:32.857Z,6.05
2017-12-20T14:11:59.255Z,6.05
2017-12-20T14:13:26.415Z,6.05
2017-12-20T14:14:54.770Z,6.06
2017-12-20T14:16:22.147Z,6.05
2017-12-20T14:17:49.275Z,6.04
2017-12-20T14:19:15.605Z,6.04
2017-12-20T14:20:43.835Z,6.03
2017-12-20T14:22:10.869Z,6.02
2017-12-20T14:23:37.115Z,6.02
2017-12-20T14:25:04.507Z,6.02
2017-12-20T14:26:32.782Z,6.03
2017-12-20T14:27:59.060Z,6.03
2017-12-20T14:29:26.362Z,6.03
2017-12-20T14:30:54.577Z,6.03
2017-12-20T14:32:21.823Z,6.03
2017-12-20T14:33:48.118Z,6.03
2017-12-20T14:35:16.489Z,6.04
2017-12-20T14:36:42.656Z,6.03
2017-12-20T14:38:10.786Z,6.04
2017-12-20T14:39:36.810Z,6.02
2017-12-20T14:41:04.212Z,6.02
2017-12-20T14:42:32.400Z,6.01
2017-12-20T14:43:58.507Z,6.01
2017-12-20T14:45:25.662Z,6.01
2017-12-20T14:46:52.766Z,6.02
2017-12-20T14:48:21.087Z,6.02
2017-12-20T14:49:47.022Z,6.02
2017-12-20T14:51:14.365Z,6.01
2017-12-20T14:52:41.623Z,6.00
2017-12-20T14:54:08.793Z,6.00
2017-12-20T14:55:36.203Z,5.99
2017-12-20T14:57:03.281Z,5.97
2017-12-20T14:58:30.700Z,5.97
2017-12-20T14:59:58.050Z,5.98
2017-12-20T15:01:25.473Z,5.98
2017-12-20T15:02:52.657Z,5.99
2017-12-20T15:04:19.984Z,5.99
2017-12-20T15:05:48.268Z,6.00
2017-12-20T15:07:14.497Z,6.01
2017-12-20T15:08:42.913Z,6.01
2017-12-20T15:10:09.014Z,6.01
2017-12-20T15:11:37.254Z,6.02
2017-12-20T15:13:03.695Z,6.03
2017-12-20T15:14:32.093Z,6.03
2017-12-20T15:15:58.293Z,6.03
2017-12-20T15:17:25.694Z,6.04
2017-12-20T15:18:52.849Z,6.05
2017-12-20T15:20:19.831Z,6.06
2017-12-20T15:21:47.152Z,6.07
2017-12-20T15:23:15.385Z,6.08
2017-12-20T15:24:41.666Z,6.08
2017-12-20T15:26:09.947Z,6.08
2017-12-20T15:27:36.278Z,6.09
2017-12-20T15:29:03.510Z,6.08
2017-12-20T15:30:30.830Z,6.09
2017-12-20T15:31:57.992Z,6.10
2017-12-20T15:33:25.209Z,6.11
2017-12-20T15:34:53.681Z,6.10
2017-12-20T15:36:19.812Z,6.10
2017-12-20T15:37:46.893Z,6.11
2017-12-20T15:39:13.982Z,6.11
2017-12-20T15:40:41.275Z,6.10
2017-12-20T15:42:08.557Z,6.09
2017-12-20T15:43:35.799Z,6.10
2017-12-20T15:45:04.247Z,6.09
2017-12-20T15:46:30.696Z,6.09
2017-12-20T15:47:58.004Z,6.09
2017-12-20T15:49:25.162Z,6.09
2017-12-20T15:50:52.540Z,6.09
2017-12-20T15:52:19.936Z,6.10
2017-12-20T15:53:48.028Z,6.10
2017-12-20T15:55:15.190Z,6.12
2017-12-20T15:56:41.335Z,6.12
2017-12-20T15:58:08.420Z,6.13
2017-12-20T15:59:36.675Z,6.13
2017-12-20T16:01:02.980Z,6.13
2017-12-20T16:02:30.195Z,6.13
2017-12-20T16:03:58.337Z,6.14
2017-12-20T16:05:24.620Z,6.15
2017-12-20T16:06:51.796Z,6.16
2017-12-20T16:08:19.069Z,6.17
2017-12-20T16:09:46.364Z,6.18
2017-12-20T16:11:13.499Z,6.19
2017-12-20T16:12:40.821Z,6.18
2017-12-20T16:14:08.052Z,6.19
2017-12-20T16:15:36.077Z,6.19
2017-12-20T16:17:02.314Z,6.19
2017-12-20T16:18:30.478Z,6.20
2017-12-20T16:19:57.631Z,6.20
2017-12-20T16:21:23.903Z,6.21
2017-12-20T16:22:51.338Z,6.21
2017-12-20T16:24:19.600Z,6.21
2017-12-20T16:25:46.862Z,6.21
2017-12-20T16:27:13.276Z,6.21
2017-12-20T16:28:40.616Z,6.21
2017-12-20T16:30:08.942Z,6.21
2017-12-20T16:31:35.112Z,6.22
2017-12-20T16:33:02.507Z,6.22
2017-12-20T16:34:29.748Z,6.20
2017-12-20T16:35:57.114Z,6.21
2017-12-20T16:37:24.498Z,6.22
2017-12-20T16:38:52.889Z,6.23
2017-12-20T16:40:19.146Z,6.23
2017-12-20T16:41:47.290Z,6.24
2017-12-20T16:43:14.710Z,6.24
2017-12-20T16:44:40.944Z,6.24
2017-12-20T16:46:09.293Z,6.25
2017-12-20T16:47:36.451Z,6.25
2017-12-20T16:49:03.867Z,6.25
2017-12-20T16:50:30.325Z,6.25
2017-12-20T16:51:58.487Z,6.26
2017-12-20T16:53:25.617Z,6.26
2017-12-20T16:54:52.920Z,6.27
2017-12-20T16:56:20.123Z,6.26
2017-12-20T16:57:46.314Z,6.25
2017-12-20T16:59:14.295Z,6.26
2017-12-20T17:00:40.604Z,6.26
2017-12-20T17:02:09.034Z,6.27
2017-12-20T17:03:34.961Z,6.27
2017-12-20T17:05:03.242Z,6.28
2017-12-20T17:06:29.625Z,6.29
2017-12-20T17:07:57.739Z,6.29
2017-12-20T17:09:25.001Z,6.30
2017-12-20T17:10:51.073Z,6.30
2017-12-20T17:12:18.474Z,6.30
2017-12-20T17:13:46.412Z,6.31
2017-12-20T17:15:13.908Z,6.32
2017-12-20T17:16:40.907Z,6.33
2017-12-20T17:18:08.211Z,6.33
2017-12-20T17:19:34.497Z,6.32
2017-12-20T17:21:02.558Z,6.32
2017-12-20T17:22:28.690Z,6.33
2017-12-20T17:23:55.935Z,6.33
2017-12-20T17:25:23.191Z,6.34
2017-12-20T17:26:50.441Z,6.35
2017-12-20T17:28:17.604Z,6.33
2017-12-20T17:29:45.925Z,6.33
2017-12-20T17:31:12.296Z,6.34
2017-12-20T17:32:39.284Z,6.35
2017-12-20T17:34:06.564Z,6.36
2017-12-20T17:35:34.658Z,6.36
2017-12-20T17:37:01.714Z,6.36
2017-12-20T17:38:28.042Z,6.37
2017-12-20T17:39:54.979Z,6.36
2017-12-20T17:41:23.097Z,6.37
2017-12-20T17:42:49.458Z,6.36
2017-12-20T17:44:16.537Z,6.36
2017-12-20T17:45:43.874Z,6.36
2017-12-20T17:47:11.123Z,6.36
2017-12-20T17:48:39.115Z,6.36
2017-12-20T17:50:06.431Z,6.36
2017-12-20T17:51:33.773Z,6.36
2017-12-20T17:53:00.234Z,6.36
2017-12-20T17:54:27.422Z,6.36
2017-12-20T17:55:54.832Z,6.36
2017-12-20T17:57:22.109Z,6.36
2017-12-20T17:58:50.370Z,6.37
2017-12-20T18:00:17.639Z,6.37
2017-12-20T18:01:43.970Z,6.37
2017-12-20T18:03:11.209Z,6.36
2017-12-20T18:04:38.321Z,6.36
2017-12-20T18:06:05.521Z,6.36
2017-12-20T18:07:33.604Z,6.37
2017-12-20T18:09:00.036Z,6.37
2017-12-20T18:10:28.419Z,6.36
2017-12-20T18:11:54.693Z,6.36
2017-12-20T18:13:22.022Z,6.36
2017-12-20T18:14:49.203Z,6.35
2017-12-20T18:16:16.328Z,6.34
2017-12-20T18:17:43.743Z,6.34
2017-12-20T18:19:12.009Z,6.33
2017-12-20T18:20:38.309Z,6.32
2017-12-20T18:22:05.486Z,6.32
2017-12-20T18:23:32.674Z,6.32
2017-12-20T18:25:00.515Z,6.33
2017-12-20T18:26:27.085Z,6.33
2017-12-20T18:27:55.199Z,6.34
2017-12-20T18:29:21.466Z,6.31
2017-12-20T18:30:48.679Z,6.31
2017-12-20T18:32:15.797Z,6.32
2017-12-20T18:33:43.228Z,6.34
2017-12-20T18:35:11.359Z,6.35
2017-12-20T18:36:37.597Z,6.36
2017-12-20T18:38:04.792Z,6.37
2017-12-20T18:39:32.124Z,6.38
2017-12-20T18:40:59.328Z,6.39
2017-12-20T18:42:27.522Z,6.40
2017-12-20T18:43:53.830Z,6.40
2017-12-20T18:45:21.901Z,6.40
2017-12-20T18:46:47.973Z,6.40
2017-12-20T18:48:15.311Z,6.41
2017-12-20T18:49:42.274Z,6.42
2017-12-20T18:51:08.998Z,6.42
2017-12-20T18:52:36.157Z,6.43
2017-12-20T18:54:03.246Z,6.43
2017-12-20T18:55:30.477Z,6.43
2017-12-20T18:56:57.799Z,6.43
2017-12-20T18:58:25.100Z,6.44
2017-12-20T18:59:53.208Z,6.44
2017-12-20T19:01:19.233Z,6.44
2017-12-20T19:02:47.476Z,6.45
2017-12-20T19:04:14.358Z,6.43
2017-12-20T19:05:41.687Z,6.43
2017-12-20T19:07:07.872Z,6.44
2017-12-20T19:08:35.070Z,6.45
2017-12-20T19:10:02.290Z,6.46
2017-12-20T19:11:30.357Z,6.47
2017-12-20T19:12:57.842Z,6.47
2017-12-20T19:14:25.013Z,6.46
2017-12-20T19:15:51.228Z,6.47
2017-12-20T19:17:19.415Z,6.49
2017-12-20T19:18:45.735Z,6.49
2017-12-20T19:20:13.986Z,6.50
2017-12-20T19:21:40.174Z,6.51
2017-12-20T19:23:07.273Z,6.52